sensor_id;sensor_type;location;lat;lon;timestamp;pressure;altitude;pressure_sealevel;temperature;humidity
40730;BME280;26418;50.070;8.436;2023-05-20T00:00:51;100374.25;;;15.03;53.32
40730;BME280;26418;50.070;8.436;2023-05-20T00:03:18;100377.31;;;15.01;53.64
40730;BME280;26418;50.070;8.436;2023-05-20T00:05:45;100375.25;;;15.07;53.44
40730;BME280;26418;50.070;8.436;2023-05-20T00:08:10;100371.41;;;15.08;53.67
40730;BME280;26418;50.070;8.436;2023-05-20T00:10:36;100369.00;;;15.06;53.76
40730;BME280;26418;50.070;8.436;2023-05-20T00:13:02;100367.84;;;15.07;53.90
40730;BME280;26418;50.070;8.436;2023-05-20T00:15:28;100368.03;;;15.02;54.03
40730;BME280;26418;50.070;8.436;2023-05-20T00:17:55;100364.19;;;15.03;54.26
40730;BME280;26418;50.070;8.436;2023-05-20T00:20:20;100368.81;;;15.03;54.22
40730;BME280;26418;50.070;8.436;2023-05-20T00:22:46;100346.53;;;14.92;54.47
40730;BME280;26418;50.070;8.436;2023-05-20T00:25:11;100358.09;;;14.98;54.63
40730;BME280;26418;50.070;8.436;2023-05-20T00:27:42;100359.69;;;14.99;54.65
40730;BME280;26418;50.070;8.436;2023-05-20T00:30:08;100365.13;;;14.99;54.83
40730;BME280;26418;50.070;8.436;2023-05-20T00:32:34;100364.16;;;14.94;54.89
40730;BME280;26418;50.070;8.436;2023-05-20T00:35:01;100359.03;;;14.93;55.28
40730;BME280;26418;50.070;8.436;2023-05-20T00:37:27;100356.16;;;14.81;55.51
40730;BME280;26418;50.070;8.436;2023-05-20T00:39:53;100360.31;;;14.87;55.79
40730;BME280;26418;50.070;8.436;2023-05-20T00:42:21;100359.50;;;14.86;55.84
40730;BME280;26418;50.070;8.436;2023-05-20T00:44:47;100353.59;;;14.84;55.75
40730;BME280;26418;50.070;8.436;2023-05-20T00:47:14;100351.66;;;14.85;55.76
40730;BME280;26418;50.070;8.436;2023-05-20T00:49:40;100353.72;;;14.79;56.03
40730;BME280;26418;50.070;8.436;2023-05-20T00:52:07;100342.19;;;14.73;56.38
40730;BME280;26418;50.070;8.436;2023-05-20T00:54:32;100342.19;;;14.73;56.35
40730;BME280;26418;50.070;8.436;2023-05-20T00:56:58;100347.00;;;14.68;56.68
40730;BME280;26418;50.070;8.436;2023-05-20T00:59:25;100350.47;;;14.59;57.00
40730;BME280;26418;50.070;8.436;2023-05-20T01:01:51;100345.97;;;14.55;57.20
40730;BME280;26418;50.070;8.436;2023-05-20T01:04:16;100339.44;;;14.56;57.50
40730;BME280;26418;50.070;8.436;2023-05-20T01:06:43;100341.50;;;14.50;57.52
40730;BME280;26418;50.070;8.436;2023-05-20T01:09:10;100349.00;;;14.44;57.80
40730;BME280;26418;50.070;8.436;2023-05-20T01:12:11;100342.56;;;14.40;57.93
40730;BME280;26418;50.070;8.436;2023-05-20T01:14:44;100348.00;;;14.40;58.15
40730;BME280;26418;50.070;8.436;2023-05-20T01:17:11;100340.50;;;14.37;58.40
40730;BME280;26418;50.070;8.436;2023-05-20T01:19:43;100337.28;;;14.35;58.14
40730;BME280;26418;50.070;8.436;2023-05-20T01:22:11;100339.66;;;14.28;58.65
40730;BME280;26418;50.070;8.436;2023-05-20T01:24:44;100339.81;;;14.23;58.71
40730;BME280;26418;50.070;8.436;2023-05-20T01:27:12;100329.88;;;14.18;59.14
40730;BME280;26418;50.070;8.436;2023-05-20T01:29:39;100322.16;;;14.11;59.32
40730;BME280;26418;50.070;8.436;2023-05-20T01:32:30;100329.66;;;14.14;59.32
40730;BME280;26418;50.070;8.436;2023-05-20T01:34:57;100325.66;;;14.12;59.35
40730;BME280;26418;50.070;8.436;2023-05-20T01:37:23;100322.78;;;14.08;59.98
40730;BME280;26418;50.070;8.436;2023-05-20T01:39:51;100327.53;;;14.03;59.89
40730;BME280;26418;50.070;8.436;2023-05-20T01:42:18;100329.78;;;14.01;60.23
40730;BME280;26418;50.070;8.436;2023-05-20T01:44:44;100329.16;;;14.04;60.19
40730;BME280;26418;50.070;8.436;2023-05-20T01:47:09;100333.91;;;13.98;60.40
40730;BME280;26418;50.070;8.436;2023-05-20T01:49:35;100328.31;;;13.94;60.64
40730;BME280;26418;50.070;8.436;2023-05-20T01:52:00;100323.34;;;13.88;60.69
40730;BME280;26418;50.070;8.436;2023-05-20T01:54:26;100327.97;;;13.87;60.91
40730;BME280;26418;50.070;8.436;2023-05-20T01:56:52;100324.28;;;13.83;60.88
40730;BME280;26418;50.070;8.436;2023-05-20T01:59:17;100325.56;;;13.86;61.31
40730;BME280;26418;50.070;8.436;2023-05-20T02:01:43;100320.28;;;13.89;61.11
40730;BME280;26418;50.070;8.436;2023-05-20T02:04:09;100318.50;;;13.84;61.51
40730;BME280;26418;50.070;8.436;2023-05-20T02:06:34;100309.41;;;13.80;61.68
40730;BME280;26418;50.070;8.436;2023-05-20T02:09:00;100300.69;;;13.70;61.46
40730;BME280;26418;50.070;8.436;2023-05-20T02:11:26;100305.19;;;13.74;61.93
40730;BME280;26418;50.070;8.436;2023-05-20T02:13:51;100295.25;;;13.70;61.95
40730;BME280;26418;50.070;8.436;2023-05-20T02:16:17;100304.41;;;13.74;62.12
40730;BME280;26418;50.070;8.436;2023-05-20T02:18:43;100300.38;;;13.71;62.00
40730;BME280;26418;50.070;8.436;2023-05-20T02:21:08;100310.94;;;13.73;62.26
40730;BME280;26418;50.070;8.436;2023-05-20T02:23:34;100306.44;;;13.68;62.53
40730;BME280;26418;50.070;8.436;2023-05-20T02:26:00;100306.75;;;13.66;62.54
40730;BME280;26418;50.070;8.436;2023-05-20T02:28:26;100304.22;;;13.70;62.67
40730;BME280;26418;50.070;8.436;2023-05-20T02:30:52;100298.44;;;13.63;62.77
40730;BME280;26418;50.070;8.436;2023-05-20T02:33:20;100304.97;;;13.62;62.83
40730;BME280;26418;50.070;8.436;2023-05-20T02:35:45;100303.97;;;13.58;63.29
40730;BME280;26418;50.070;8.436;2023-05-20T02:38:11;100306.69;;;13.58;63.11
40730;BME280;26418;50.070;8.436;2023-05-20T02:40:37;100303.97;;;13.58;63.11
40730;BME280;26418;50.070;8.436;2023-05-20T02:43:03;100300.59;;;13.52;63.47
40730;BME280;26418;50.070;8.436;2023-05-20T02:45:29;100302.19;;;13.53;63.56
40730;BME280;26418;50.070;8.436;2023-05-20T02:47:55;100303.38;;;13.61;63.34
40730;BME280;26418;50.070;8.436;2023-05-20T02:50:22;100298.44;;;13.63;63.70
40730;BME280;26418;50.070;8.436;2023-05-20T02:52:48;100303.72;;;13.68;63.27
40730;BME280;26418;50.070;8.436;2023-05-20T02:55:14;100307.91;;;13.74;63.15
40730;BME280;26418;50.070;8.436;2023-05-20T02:57:40;100301.50;;;13.70;63.53
40730;BME280;26418;50.070;8.436;2023-05-20T03:00:10;100296.19;;;13.65;63.69
40730;BME280;26418;50.070;8.436;2023-05-20T03:02:37;100300.09;;;13.81;63.17
40730;BME280;26418;50.070;8.436;2023-05-20T03:05:03;100305.06;;;13.79;63.41
40730;BME280;26418;50.070;8.436;2023-05-20T03:07:29;100297.19;;;13.69;63.71
40730;BME280;26418;50.070;8.436;2023-05-20T03:09:56;100292.84;;;13.68;63.89
40730;BME280;26418;50.070;8.436;2023-05-20T03:12:25;100286.31;;;13.69;63.95
40730;BME280;26418;50.070;8.436;2023-05-20T03:14:51;100287.59;;;13.72;63.83
40730;BME280;26418;50.070;8.436;2023-05-20T03:17:20;100282.16;;;13.72;63.83
40730;BME280;26418;50.070;8.436;2023-05-20T03:19:46;100282.81;;;13.77;63.83
40730;BME280;26418;50.070;8.436;2023-05-20T03:22:12;100281.38;;;13.80;63.57
40730;BME280;26418;50.070;8.436;2023-05-20T03:24:37;100276.78;;;13.80;63.47
40730;BME280;26418;50.070;8.436;2023-05-20T03:27:03;100278.41;;;13.90;63.35
40730;BME280;26418;50.070;8.436;2023-05-20T03:29:29;100274.88;;;13.90;63.41
40730;BME280;26418;50.070;8.436;2023-05-20T03:31:55;100268.47;;;13.94;63.35
40730;BME280;26418;50.070;8.436;2023-05-20T03:34:21;100269.75;;;13.88;63.53
40730;BME280;26418;50.070;8.436;2023-05-20T03:36:46;100267.53;;;13.90;63.55
40730;BME280;26418;50.070;8.436;2023-05-20T03:39:12;100272.63;;;13.92;63.49
40730;BME280;26418;50.070;8.436;2023-05-20T03:41:38;100270.75;;;13.92;63.62
40730;BME280;26418;50.070;8.436;2023-05-20T03:44:03;100265.59;;;13.91;63.79
40730;BME280;26418;50.070;8.436;2023-05-20T03:46:29;100273.75;;;13.91;63.95
40730;BME280;26418;50.070;8.436;2023-05-20T03:48:56;100276.19;;;13.92;63.81
40730;BME280;26418;50.070;8.436;2023-05-20T03:51:22;100272.47;;;13.88;63.84
40730;BME280;26418;50.070;8.436;2023-05-20T03:53:47;100273.41;;;13.83;64.22
40730;BME280;26418;50.070;8.436;2023-05-20T03:56:13;100275.16;;;13.79;64.38
40730;BME280;26418;50.070;8.436;2023-05-20T03:58:38;100278.66;;;13.80;64.32
40730;BME280;26418;50.070;8.436;2023-05-20T04:01:04;100278.50;;;13.76;64.53
40730;BME280;26418;50.070;8.436;2023-05-20T04:03:30;100278.81;;;13.75;64.78
40730;BME280;26418;50.070;8.436;2023-05-20T04:05:58;100267.94;;;13.75;64.74
40730;BME280;26418;50.070;8.436;2023-05-20T04:08:24;100278.50;;;13.76;64.56
40730;BME280;26418;50.070;8.436;2023-05-20T04:10:56;100272.38;;;13.71;65.04
40730;BME280;26418;50.070;8.436;2023-05-20T04:13:21;100280.59;;;13.79;64.88
40730;BME280;26418;50.070;8.436;2023-05-20T04:15:50;100273.38;;;13.75;64.91
40730;BME280;26418;50.070;8.436;2023-05-20T04:18:16;100280.72;;;13.74;65.16
40730;BME280;26418;50.070;8.436;2023-05-20T04:20:42;100273.31;;;13.66;65.16
40730;BME280;26418;50.070;8.436;2023-05-20T04:23:09;100278.47;;;13.67;65.43
40730;BME280;26418;50.070;8.436;2023-05-20T04:25:34;100278.50;;;13.76;65.47
40730;BME280;26418;50.070;8.436;2023-05-20T04:28:00;100280.59;;;13.79;65.29
40730;BME280;26418;50.070;8.436;2023-05-20T04:30:26;100277.88;;;13.79;65.36
40730;BME280;26418;50.070;8.436;2023-05-20T04:32:53;100277.41;;;13.86;65.15
40730;BME280;26418;50.070;8.436;2023-05-20T04:35:18;100279.19;;;13.91;65.05
40730;BME280;26418;50.070;8.436;2023-05-20T04:37:44;100281.28;;;13.94;65.08
40730;BME280;26418;50.070;8.436;2023-05-20T04:40:12;100269.91;;;13.83;65.32
40730;BME280;26418;50.070;8.436;2023-05-20T04:42:38;100275.34;;;13.92;65.34
40730;BME280;26418;50.070;8.436;2023-05-20T04:45:04;100272.03;;;14.04;65.00
40730;BME280;26418;50.070;8.436;2023-05-20T04:47:31;100275.41;;;14.09;64.66
40730;BME280;26418;50.070;8.436;2023-05-20T04:50:04;100267.09;;;14.06;64.64
40730;BME280;26418;50.070;8.436;2023-05-20T04:52:30;100277.38;;;14.18;64.43
40730;BME280;26418;50.070;8.436;2023-05-20T04:54:55;100275.94;;;14.20;64.67
40730;BME280;26418;50.070;8.436;2023-05-20T04:57:22;100276.59;;;14.26;64.39
40730;BME280;26418;50.070;8.436;2023-05-20T04:59:48;100270.19;;;14.30;64.00
40730;BME280;26418;50.070;8.436;2023-05-20T05:02:13;100265.22;;;14.24;64.24
40730;BME280;26418;50.070;8.436;2023-05-20T05:04:39;100270.19;;;14.22;64.26
40730;BME280;26418;50.070;8.436;2023-05-20T05:07:05;100271.81;;;14.23;64.46
40730;BME280;26418;50.070;8.436;2023-05-20T05:09:30;100266.97;;;14.20;64.78
40730;BME280;26418;50.070;8.436;2023-05-20T05:11:56;100261.53;;;14.20;64.69
40730;BME280;26418;50.070;8.436;2023-05-20T05:14:22;100255.00;;;14.21;64.85
40730;BME280;26418;50.070;8.436;2023-05-20T05:16:48;100260.72;;;14.19;65.13
40730;BME280;26418;50.070;8.436;2023-05-20T05:19:14;100254.16;;;14.20;65.02
40730;BME280;26418;50.070;8.436;2023-05-20T05:21:39;100249.53;;;14.29;64.60
40730;BME280;26418;50.070;8.436;2023-05-20T05:24:05;100244.44;;;14.37;64.71
40730;BME280;26418;50.070;8.436;2023-05-20T05:26:31;100240.09;;;14.36;64.67
40730;BME280;26418;50.070;8.436;2023-05-20T05:28:56;100241.25;;;14.43;64.75
40730;BME280;26418;50.070;8.436;2023-05-20T05:31:22;100251.19;;;14.48;64.47
40730;BME280;26418;50.070;8.436;2023-05-20T05:33:47;100240.94;;;14.54;64.42
40730;BME280;26418;50.070;8.436;2023-05-20T05:36:14;100237.56;;;14.57;64.60
40730;BME280;26418;50.070;8.436;2023-05-20T05:38:40;100243.38;;;14.64;63.99
40730;BME280;26418;50.070;8.436;2023-05-20T05:41:06;100240.34;;;14.74;63.98
40730;BME280;26418;50.070;8.436;2023-05-20T05:43:32;100242.25;;;14.91;63.37
40730;BME280;26418;50.070;8.436;2023-05-20T05:45:58;100237.44;;;15.06;62.88
40730;BME280;26418;50.070;8.436;2023-05-20T05:48:23;100225.88;;;15.18;62.57
40730;BME280;26418;50.070;8.436;2023-05-20T05:50:49;100235.47;;;15.33;62.04
40730;BME280;26418;50.070;8.436;2023-05-20T05:53:15;100226.94;;;15.43;61.86
40730;BME280;26418;50.070;8.436;2023-05-20T05:55:40;100232.53;;;15.47;61.53
40730;BME280;26418;50.070;8.436;2023-05-20T05:58:06;100238.97;;;15.42;61.58
40730;BME280;26418;50.070;8.436;2023-05-20T06:00:31;100238.16;;;15.41;61.81
40730;BME280;26418;50.070;8.436;2023-05-20T06:02:57;100241.84;;;15.37;61.92
40730;BME280;26418;50.070;8.436;2023-05-20T06:05:22;100235.94;;;15.35;61.80
40730;BME280;26418;50.070;8.436;2023-05-20T06:07:48;100235.66;;;15.28;62.17
40730;BME280;26418;50.070;8.436;2023-05-20T06:10:13;100235.47;;;15.24;62.41
40730;BME280;26418;50.070;8.436;2023-05-20T06:12:39;100230.50;;;15.26;62.41
40730;BME280;26418;50.070;8.436;2023-05-20T06:15:05;100236.09;;;15.30;62.47
40730;BME280;26418;50.070;8.436;2023-05-20T06:17:31;100224.09;;;15.31;62.37
40730;BME280;26418;50.070;8.436;2023-05-20T06:19:57;100235.13;;;15.43;62.45
40730;BME280;26418;50.070;8.436;2023-05-20T06:22:23;100239.91;;;15.55;62.03
40730;BME280;26418;50.070;8.436;2023-05-20T06:24:48;100225.13;;;15.56;61.89
40730;BME280;26418;50.070;8.436;2023-05-20T06:27:14;100234.25;;;15.60;61.77
40730;BME280;26418;50.070;8.436;2023-05-20T06:29:40;100235.22;;;15.55;61.90
40730;BME280;26418;50.070;8.436;2023-05-20T06:32:05;100236.19;;;15.60;61.84
40730;BME280;26418;50.070;8.436;2023-05-20T06:34:31;100240.00;;;15.67;61.74
40730;BME280;26418;50.070;8.436;2023-05-20T06:36:57;100227.31;;;15.71;61.59
40730;BME280;26418;50.070;8.436;2023-05-20T06:39:23;100231.03;;;15.67;61.85
40730;BME280;26418;50.070;8.436;2023-05-20T06:41:49;100231.44;;;15.78;61.43
40730;BME280;26418;50.070;8.436;2023-05-20T06:44:16;100227.94;;;15.77;61.46
40730;BME280;26418;50.070;8.436;2023-05-20T06:46:42;100230.97;;;15.76;61.47
40730;BME280;26418;50.070;8.436;2023-05-20T06:49:07;100227.13;;;15.77;61.54
40730;BME280;26418;50.070;8.436;2023-05-20T06:51:33;100226.78;;;15.87;61.51
40730;BME280;26418;50.070;8.436;2023-05-20T06:53:58;100219.38;;;15.96;61.43
40730;BME280;26418;50.070;8.436;2023-05-20T06:56:24;100225.88;;;16.04;60.88
40730;BME280;26418;50.070;8.436;2023-05-20T06:58:49;100237.28;;;16.06;60.96
40730;BME280;26418;50.070;8.436;2023-05-20T07:01:15;100222.03;;;16.05;60.95
40730;BME280;26418;50.070;8.436;2023-05-20T07:03:41;100220.88;;;16.15;60.83
40730;BME280;26418;50.070;8.436;2023-05-20T07:06:08;100223.47;;;16.11;60.78
40730;BME280;26418;50.070;8.436;2023-05-20T07:08:34;100211.94;;;16.06;61.11
40730;BME280;26418;50.070;8.436;2023-05-20T07:10:59;100223.59;;;16.15;61.12
40730;BME280;26418;50.070;8.436;2023-05-20T07:13:25;100228.19;;;16.23;60.92
40730;BME280;26418;50.070;8.436;2023-05-20T07:15:51;100208.69;;;16.33;60.03
40730;BME280;26418;50.070;8.436;2023-05-20T07:18:19;100222.47;;;16.37;60.14
40730;BME280;26418;50.070;8.436;2023-05-20T07:20:45;100208.03;;;16.37;59.96
40730;BME280;26418;50.070;8.436;2023-05-20T07:23:11;100223.41;;;16.41;59.91
40730;BME280;26418;50.070;8.436;2023-05-20T07:25:36;100215.34;;;16.45;59.77
40730;BME280;26418;50.070;8.436;2023-05-20T07:28:02;100209.41;;;16.43;59.70
40730;BME280;26418;50.070;8.436;2023-05-20T07:30:28;100203.09;;;16.51;59.33
40730;BME280;26418;50.070;8.436;2023-05-20T07:32:53;100209.13;;;16.44;59.85
40730;BME280;26418;50.070;8.436;2023-05-20T07:35:19;100204.31;;;16.41;60.11
40730;BME280;26418;50.070;8.436;2023-05-20T07:37:44;100210.38;;;16.47;59.77
40730;BME280;26418;50.070;8.436;2023-05-20T07:40:10;100194.00;;;16.47;59.68
40730;BME280;26418;50.070;8.436;2023-05-20T07:42:36;100190.78;;;16.45;60.06
40730;BME280;26418;50.070;8.436;2023-05-20T07:45:02;100187.41;;;16.48;60.25
40730;BME280;26418;50.070;8.436;2023-05-20T07:47:27;100185.72;;;16.56;59.62
40730;BME280;26418;50.070;8.436;2023-05-20T07:49:53;100186.66;;;16.60;59.64
40730;BME280;26418;50.070;8.436;2023-05-20T07:52:18;100177.47;;;16.64;59.90
40730;BME280;26418;50.070;8.436;2023-05-20T07:54:44;100190.63;;;16.84;59.34
40730;BME280;26418;50.070;8.436;2023-05-20T07:57:09;100178.69;;;16.88;58.87
40730;BME280;26418;50.070;8.436;2023-05-20T07:59:35;100171.41;;;16.92;58.82
40730;BME280;26418;50.070;8.436;2023-05-20T08:02:00;100177.47;;;16.98;58.59
40730;BME280;26418;50.070;8.436;2023-05-20T08:04:26;100177.41;;;17.07;58.79
40730;BME280;26418;50.070;8.436;2023-05-20T08:06:52;100180.25;;;17.10;58.19
40730;BME280;26418;50.070;8.436;2023-05-20T08:09:18;100178.78;;;17.25;58.24
40730;BME280;26418;50.070;8.436;2023-05-20T08:11:44;100183.16;;;17.51;57.76
40730;BME280;26418;50.070;8.436;2023-05-20T08:14:09;100186.69;;;17.64;57.55
40730;BME280;26418;50.070;8.436;2023-05-20T08:16:35;100184.41;;;17.91;56.52
40730;BME280;26418;50.070;8.436;2023-05-20T08:19:01;100182.13;;;18.05;55.97
40730;BME280;26418;50.070;8.436;2023-05-20T08:21:27;100173.47;;;18.03;55.64
40730;BME280;26418;50.070;8.436;2023-05-20T08:23:53;100176.31;;;18.07;55.80
40730;BME280;26418;50.070;8.436;2023-05-20T08:26:18;100183.25;;;18.17;55.75
40730;BME280;26418;50.070;8.436;2023-05-20T08:28:44;100163.88;;;18.10;55.34
40730;BME280;26418;50.070;8.436;2023-05-20T08:31:09;100179.56;;;18.37;55.21
40730;BME280;26418;50.070;8.436;2023-05-20T08:33:35;100173.47;;;18.44;54.91
40730;BME280;26418;50.070;8.436;2023-05-20T08:36:00;100178.19;;;18.72;54.59
40730;BME280;26418;50.070;8.436;2023-05-20T08:38:26;100165.72;;;19.03;54.17
40730;BME280;26418;50.070;8.436;2023-05-20T08:40:56;100170.50;;;19.38;52.66
40730;BME280;26418;50.070;8.436;2023-05-20T08:43:22;100175.38;;;19.45;52.25
40730;BME280;26418;50.070;8.436;2023-05-20T08:45:48;100170.06;;;19.20;52.41
40730;BME280;26418;50.070;8.436;2023-05-20T08:48:16;100175.16;;;19.06;53.20
40730;BME280;26418;50.070;8.436;2023-05-20T08:50:44;100165.06;;;18.94;53.48
40730;BME280;26418;50.070;8.436;2023-05-20T08:53:14;100167.66;;;18.74;54.25
40730;BME280;26418;50.070;8.436;2023-05-20T08:55:45;100177.91;;;18.77;54.44
40730;BME280;26418;50.070;8.436;2023-05-20T08:58:11;100162.50;;;18.57;54.77
40730;BME280;26418;50.070;8.436;2023-05-20T09:00:39;100183.00;;;18.63;54.45
40730;BME280;26418;50.070;8.436;2023-05-20T09:03:06;100174.59;;;18.56;54.69
40730;BME280;26418;50.070;8.436;2023-05-20T09:05:33;100181.88;;;18.64;54.62
40730;BME280;26418;50.070;8.436;2023-05-20T09:08:10;100171.47;;;18.69;54.84
40730;BME280;26418;50.070;8.436;2023-05-20T09:10:39;100179.94;;;18.93;54.43
40730;BME280;26418;50.070;8.436;2023-05-20T09:13:05;100180.03;;;18.96;54.23
40730;BME280;26418;50.070;8.436;2023-05-20T09:15:32;100172.53;;;19.09;54.07
40730;BME280;26418;50.070;8.436;2023-05-20T09:18:05;100161.94;;;19.24;54.07
40730;BME280;26418;50.070;8.436;2023-05-20T09:20:34;100170.34;;;19.47;53.25
40730;BME280;26418;50.070;8.436;2023-05-20T09:23:05;100177.03;;;19.66;52.87
40730;BME280;26418;50.070;8.436;2023-05-20T09:25:31;100175.88;;;19.67;51.89
40730;BME280;26418;50.070;8.436;2023-05-20T09:27:57;100163.00;;;19.51;52.90
40730;BME280;26418;50.070;8.436;2023-05-20T09:30:23;100161.75;;;19.48;52.66
40730;BME280;26418;50.070;8.436;2023-05-20T09:32:56;100145.38;;;19.68;52.71
40730;BME280;26418;50.070;8.436;2023-05-20T09:35:22;100146.84;;;19.82;51.35
40730;BME280;26418;50.070;8.436;2023-05-20T09:37:51;100154.81;;;19.87;52.11
40730;BME280;26418;50.070;8.436;2023-05-20T09:40:22;100149.81;;;20.08;51.59
40730;BME280;26418;50.070;8.436;2023-05-20T09:43:08;100157.63;;;20.46;50.53
40730;BME280;26418;50.070;8.436;2023-05-20T09:45:36;100150.66;;;20.71;49.74
40730;BME280;26418;50.070;8.436;2023-05-20T09:48:03;100143.56;;;20.90;48.75
40730;BME280;26418;50.070;8.436;2023-05-20T09:50:30;100147.50;;;21.35;49.12
40730;BME280;26418;50.070;8.436;2023-05-20T09:53:01;100138.22;;;21.71;47.51
40730;BME280;26418;50.070;8.436;2023-05-20T09:55:27;100147.63;;;21.96;47.08
40730;BME280;26418;50.070;8.436;2023-05-20T09:57:55;100138.09;;;22.21;46.17
40730;BME280;26418;50.070;8.436;2023-05-20T10:00:21;100146.03;;;22.56;45.78
40730;BME280;26418;50.070;8.436;2023-05-20T10:02:50;100138.50;;;22.87;45.31
40730;BME280;26418;50.070;8.436;2023-05-20T10:05:21;100136.66;;;23.06;44.37
40730;BME280;26418;50.070;8.436;2023-05-20T10:10:49;100136.44;;;22.81;44.33
40730;BME280;26418;50.070;8.436;2023-05-20T10:13:58;100141.03;;;22.35;45.42
40730;BME280;26418;50.070;8.436;2023-05-20T10:19:36;100140.50;;;22.56;45.67
40730;BME280;26418;50.070;8.436;2023-05-20T10:22:06;100134.09;;;22.45;45.58
40730;BME280;26418;50.070;8.436;2023-05-20T10:44:25;100128.44;;;24.39;41.92
40730;BME280;26418;50.070;8.436;2023-05-20T10:47:01;100130.41;;;24.28;41.53
40730;BME280;26418;50.070;8.436;2023-05-20T10:49:32;100122.25;;;23.79;42.24
40730;BME280;26418;50.070;8.436;2023-05-20T10:51:59;100116.63;;;23.65;42.32
40730;BME280;26418;50.070;8.436;2023-05-20T10:54:25;100103.00;;;23.31;43.37
40730;BME280;26418;50.070;8.436;2023-05-20T10:56:54;100098.09;;;23.13;43.35
40730;BME280;26418;50.070;8.436;2023-05-20T10:59:20;100095.78;;;22.74;43.43
40730;BME280;26418;50.070;8.436;2023-05-20T11:01:47;100099.97;;;22.57;43.91
40730;BME280;26418;50.070;8.436;2023-05-20T11:04:14;100095.56;;;22.18;44.37
40730;BME280;26418;50.070;8.436;2023-05-20T11:06:51;100110.94;;;22.19;45.74
40730;BME280;26418;50.070;8.436;2023-05-20T11:09:18;100105.00;;;22.17;44.80
40730;BME280;26418;50.070;8.436;2023-05-20T11:11:43;100093.47;;;22.08;45.53
40730;BME280;26418;50.070;8.436;2023-05-20T11:14:09;100082.50;;;22.11;45.75
40730;BME280;26418;50.070;8.436;2023-05-20T11:16:38;100089.28;;;22.21;44.49
40730;BME280;26418;50.070;8.436;2023-05-20T11:19:06;100075.56;;;22.25;44.73
40730;BME280;26418;50.070;8.436;2023-05-20T11:21:32;100078.16;;;22.41;43.71
40730;BME280;26418;50.070;8.436;2023-05-20T11:23:58;100076.78;;;22.27;44.46
40730;BME280;26418;50.070;8.436;2023-05-20T11:26:23;100081.22;;;22.36;44.71
40730;BME280;26418;50.070;8.436;2023-05-20T11:28:48;100071.91;;;22.48;44.12
40730;BME280;26418;50.070;8.436;2023-05-20T11:31:14;100072.81;;;22.59;43.97
40730;BME280;26418;50.070;8.436;2023-05-20T11:33:42;100074.28;;;22.90;43.13
40730;BME280;26418;50.070;8.436;2023-05-20T11:36:09;100074.19;;;23.24;43.16
40730;BME280;26418;50.070;8.436;2023-05-20T11:38:35;100087.28;;;23.35;42.70
40730;BME280;26418;50.070;8.436;2023-05-20T11:44:23;100072.78;;;23.49;42.49
40730;BME280;26418;50.070;8.436;2023-05-20T11:46:51;100071.31;;;23.73;41.82
40730;BME280;26418;50.070;8.436;2023-05-20T11:49:23;100071.16;;;24.22;42.25
40730;BME280;26418;50.070;8.436;2023-05-20T11:51:48;100072.88;;;24.80;41.16
40730;BME280;26418;50.070;8.436;2023-05-20T11:54:14;100062.19;;;25.19;38.77
40730;BME280;26418;50.070;8.436;2023-05-20T11:56:39;100057.44;;;25.12;39.41
40730;BME280;26418;50.070;8.436;2023-05-20T11:59:09;100066.16;;;24.82;39.12
40730;BME280;26418;50.070;8.436;2023-05-20T12:01:38;100067.34;;;25.06;39.19
40730;BME280;26418;50.070;8.436;2023-05-20T12:04:10;100061.03;;;25.13;38.62
40730;BME280;26418;50.070;8.436;2023-05-20T12:06:42;100053.88;;;25.30;38.95
40730;BME280;26418;50.070;8.436;2023-05-20T12:09:10;100057.06;;;25.06;38.49
40730;BME280;26418;50.070;8.436;2023-05-20T12:11:38;100053.13;;;24.93;38.37
40730;BME280;26418;50.070;8.436;2023-05-20T12:14:08;100051.13;;;24.75;38.93
40730;BME280;26418;50.070;8.436;2023-05-20T12:16:34;100048.00;;;24.95;39.14
40730;BME280;26418;50.070;8.436;2023-05-20T12:19:00;100050.75;;;25.02;38.85
40730;BME280;26418;50.070;8.436;2023-05-20T12:21:27;100042.84;;;24.90;38.58
40730;BME280;26418;50.070;8.436;2023-05-20T12:23:54;100056.13;;;24.15;39.84
40730;BME280;26418;50.070;8.436;2023-05-20T12:26:28;100059.47;;;23.65;41.99
40730;BME280;26418;50.070;8.436;2023-05-20T12:28:54;100066.09;;;23.50;41.82
40730;BME280;26418;50.070;8.436;2023-05-20T12:31:20;100063.34;;;23.57;41.61
40730;BME280;26418;50.070;8.436;2023-05-20T12:33:46;100061.81;;;23.67;42.45
40730;BME280;26418;50.070;8.436;2023-05-20T12:36:12;100057.28;;;24.07;41.31
40730;BME280;26418;50.070;8.436;2023-05-20T12:38:38;100060.13;;;24.32;40.40
40730;BME280;26418;50.070;8.436;2023-05-20T12:41:03;100044.72;;;24.24;40.23
40730;BME280;26418;50.070;8.436;2023-05-20T12:43:29;100043.13;;;24.16;40.11
40730;BME280;26418;50.070;8.436;2023-05-20T12:45:59;100059.19;;;23.92;40.61
40730;BME280;26418;50.070;8.436;2023-05-20T12:48:25;100055.38;;;23.45;41.47
40730;BME280;26418;50.070;8.436;2023-05-20T12:50:50;100051.06;;;22.95;42.52
40730;BME280;26418;50.070;8.436;2023-05-20T12:53:16;100052.38;;;22.64;43.33
40730;BME280;26418;50.070;8.436;2023-05-20T12:55:44;100054.97;;;22.45;43.71
40730;BME280;26418;50.070;8.436;2023-05-20T12:58:09;100036.13;;;22.51;44.08
40730;BME280;26418;50.070;8.436;2023-05-20T13:00:38;100047.88;;;22.44;43.99
40730;BME280;26418;50.070;8.436;2023-05-20T13:03:03;100023.06;;;22.44;44.62
40730;BME280;26418;50.070;8.436;2023-05-20T13:05:31;100033.78;;;22.53;44.15
40730;BME280;26418;50.070;8.436;2023-05-20T13:07:56;100036.63;;;22.64;43.98
40730;BME280;26418;50.070;8.436;2023-05-20T13:10:22;100040.53;;;22.59;44.24
40730;BME280;26418;50.070;8.436;2023-05-20T13:12:48;100045.63;;;22.57;44.22
40730;BME280;26418;50.070;8.436;2023-05-20T13:15:14;100042.50;;;22.63;44.11
40730;BME280;26418;50.070;8.436;2023-05-20T13:17:42;100050.88;;;22.70;43.93